Time;durP1;ratioP1;P1;durP2;ratioP2;P2;SDS_P1;SDS_P2;PMS_P1;PMS_P2;Temp;Humidity;BMP_temperature;BMP_pressure;BME280_temperature;BME280_humidity;BME280_pressure;Samples;Min_cycle;Max_cycle;Signal;HPM_P1;HPM_P2
2023/03/15 00:00:41;;;;;;;1.92;0.70;;;4.40;99.90;;;;;;5012343;28;20025;-73
2023/03/15 00:03:07;;;;;;;4.05;0.90;;;4.30;99.90;;;;;;5013203;28;20026;-73
2023/03/15 00:05:32;;;;;;;2.53;0.90;;;4.30;99.90;;;;;;5012596;28;20022;-73
2023/03/15 00:07:58;;;;;;;4.57;0.90;;;4.30;99.90;;;;;;5008547;28;20030;-74
2023/03/15 00:10:24;;;;;;;7.15;1.00;;;4.20;99.90;;;;;;5011364;28;20076;-73
2023/03/15 00:12:50;;;;;;;9.40;1.38;;;4.20;99.90;;;;;;5009024;28;20033;-73
2023/03/15 00:15:16;;;;;;;3.35;1.02;;;4.10;99.90;;;;;;5006865;28;20022;-73
2023/03/15 00:17:41;;;;;;;3.05;0.80;;;4.10;99.90;;;;;;5010688;28;20030;-73
2023/03/15 00:20:08;;;;;;;4.63;1.20;;;4.10;99.90;;;;;;5011722;28;20018;-73
2023/03/15 00:22:33;;;;;;;2.65;0.80;;;4.10;99.90;;;;;;4998914;28;20241;-73
2023/03/15 00:24:59;;;;;;;3.72;0.80;;;4.10;99.90;;;;;;5012886;28;20180;-73
2023/03/15 00:27:24;;;;;;;4.82;0.90;;;4.10;99.90;;;;;;5012099;28;20026;-73
2023/03/15 00:29:50;;;;;;;8.90;1.00;;;4.10;99.90;;;;;;5011973;28;20122;-73
2023/03/15 00:32:15;;;;;;;3.67;0.82;;;4.10;99.90;;;;;;5011267;28;20543;-73
2023/03/15 00:34:47;;;;;;;4.93;0.85;;;4.10;99.90;;;;;;5012032;28;20064;-73
2023/03/15 00:37:15;;;;;;;2.75;0.90;;;4.00;99.90;;;;;;5011526;28;20046;-73
2023/03/15 00:39:44;;;;;;;5.22;1.23;;;4.00;99.90;;;;;;5011351;28;20026;-73
2023/03/15 00:42:10;;;;;;;3.17;1.02;;;4.00;99.90;;;;;;5010841;28;20424;-73
2023/03/15 00:44:36;;;;;;;6.35;1.02;;;4.00;99.90;;;;;;5001925;28;20389;-73
2023/03/15 00:47:02;;;;;;;6.82;1.08;;;4.00;99.90;;;;;;5010798;28;20037;-73
2023/03/15 00:49:27;;;;;;;7.43;1.05;;;4.10;99.90;;;;;;5011043;28;20034;-73
2023/03/15 00:51:56;;;;;;;5.32;1.00;;;4.10;99.90;;;;;;5011204;28;20105;-73
2023/03/15 00:54:22;;;;;;;3.28;1.00;;;4.00;99.90;;;;;;5009925;28;20026;-73
2023/03/15 00:56:48;;;;;;;5.43;1.00;;;4.00;99.90;;;;;;5001276;28;20019;-73
2023/03/15 00:59:14;;;;;;;6.32;1.10;;;4.00;99.90;;;;;;5004382;28;20504;-73
2023/03/15 01:01:43;;;;;;;3.58;1.08;;;4.00;99.90;;;;;;5010846;28;20073;-73
2023/03/15 01:04:10;;;;;;;9.93;1.27;;;4.00;99.90;;;;;;5010577;28;20030;-73
2023/03/15 01:06:37;;;;;;;5.10;1.05;;;4.00;99.90;;;;;;5004671;28;20022;-73
2023/03/15 01:09:04;;;;;;;2.80;0.95;;;4.00;99.90;;;;;;5000823;28;20053;-73
2023/03/15 01:11:30;;;;;;;4.10;0.88;;;4.00;99.90;;;;;;5007868;28;20034;-73
2023/03/15 01:13:57;;;;;;;5.72;1.20;;;4.00;99.90;;;;;;5011517;28;20069;-73
2023/03/15 01:16:23;;;;;;;6.82;1.00;;;4.00;99.90;;;;;;5011935;28;20360;-73
2023/03/15 01:18:50;;;;;;;5.28;1.20;;;4.00;99.90;;;;;;5011573;28;20034;-73
2023/03/15 01:21:16;;;;;;;5.18;1.20;;;4.00;99.90;;;;;;5003245;28;20121;-73
2023/03/15 01:23:42;;;;;;;5.63;1.20;;;4.00;99.90;;;;;;4994492;28;20045;-73
2023/03/15 01:26:11;;;;;;;6.20;1.27;;;3.90;99.90;;;;;;5005879;28;20018;-72
2023/03/15 01:28:37;;;;;;;6.68;1.55;;;3.90;99.90;;;;;;5013585;28;20030;-72
2023/03/15 01:31:03;;;;;;;3.78;1.00;;;3.90;99.90;;;;;;5015569;28;20057;-73
2023/03/15 01:33:29;;;;;;;4.95;0.82;;;3.90;99.90;;;;;;5016325;28;20206;-73
2023/03/15 01:36:05;;;;;;;8.95;1.10;;;3.80;99.90;;;;;;5015669;28;20413;-72
2023/03/15 01:38:32;;;;;;;5.88;1.00;;;3.80;99.90;;;;;;5016584;28;20026;-72
2023/03/15 01:40:58;;;;;;;4.35;0.90;;;3.80;99.90;;;;;;5001902;28;20125;-73
2023/03/15 01:43:27;;;;;;;3.22;0.88;;;3.80;99.90;;;;;;5007187;28;20116;-72
2023/03/15 01:46:04;;;;;;;2.88;0.90;;;3.70;99.90;;;;;;4997713;28;20026;-73
2023/03/15 01:48:58;;;;;;;4.47;0.80;;;3.70;99.90;;;;;;5016087;28;20026;-72
2023/03/15 01:51:35;;;;;;;2.92;0.90;;;3.80;99.90;;;;;;4966095;28;20038;-73
2023/03/15 01:54:07;;;;;;;2.85;0.80;;;3.70;99.90;;;;;;4978348;28;20067;-73
2023/03/15 01:56:35;;;;;;;2.97;0.80;;;3.70;99.90;;;;;;4995839;28;20023;-73
2023/03/15 01:59:03;;;;;;;4.53;0.80;;;3.70;99.90;;;;;;5006377;28;20034;-73
2023/03/15 02:01:31;;;;;;;2.67;0.90;;;3.70;99.90;;;;;;5001681;28;20033;-72
2023/03/15 02:04:03;;;;;;;4.55;0.88;;;3.70;99.90;;;;;;5014355;28;20105;-73
2023/03/15 02:06:33;;;;;;;6.43;0.90;;;3.70;99.90;;;;;;5013097;28;20400;-72
2023/03/15 02:09:02;;;;;;;8.27;1.75;;;3.70;99.90;;;;;;4994894;28;20038;-72
2023/03/15 02:11:28;;;;;;;9.48;0.90;;;3.70;99.90;;;;;;5012080;28;20041;-73
2023/03/15 02:13:55;;;;;;;2.85;0.95;;;3.70;99.90;;;;;;5013138;28;20029;-73
2023/03/15 02:16:22;;;;;;;2.42;1.02;;;3.70;99.90;;;;;;5008546;28;20070;-73
2023/03/15 02:18:48;;;;;;;2.67;1.02;;;3.80;99.90;;;;;;5014383;28;20401;-73
2023/03/15 02:21:24;;;;;;;3.15;0.90;;;3.70;99.90;;;;;;5000224;28;20045;-72
2023/03/15 02:24:31;;;;;;;6.90;1.08;;;3.80;99.90;;;;;;5005544;28;20034;-73
2023/03/15 02:26:57;;;;;;;4.97;0.90;;;3.70;99.90;;;;;;5008270;28;20025;-72
2023/03/15 02:29:25;;;;;;;3.85;0.95;;;3.70;99.90;;;;;;5008955;28;20033;-72
2023/03/15 02:31:52;;;;;;;4.90;1.00;;;3.70;99.90;;;;;;5013577;28;20026;-72
2023/03/15 02:34:17;;;;;;;3.75;1.17;;;3.70;99.90;;;;;;4989923;28;20120;-73
2023/03/15 02:36:43;;;;;;;3.65;1.08;;;3.70;99.90;;;;;;5009586;28;20426;-73
2023/03/15 02:39:15;;;;;;;3.55;1.10;;;3.70;99.90;;;;;;4984606;28;20023;-73
2023/03/15 02:41:45;;;;;;;4.18;1.08;;;3.70;99.90;;;;;;4998584;28;20034;-72
2023/03/15 02:44:16;;;;;;;5.28;1.10;;;3.70;99.90;;;;;;5005667;28;20037;-72
2023/03/15 02:46:43;;;;;;;5.47;1.00;;;3.70;99.90;;;;;;5012352;28;20389;-73
2023/03/15 02:49:12;;;;;;;5.93;1.13;;;3.60;99.90;;;;;;5003022;28;20121;-72
2023/03/15 02:51:37;;;;;;;2.10;1.13;;;3.60;99.90;;;;;;5007851;28;20117;-72
2023/03/15 02:54:03;;;;;;;4.50;1.30;;;3.60;99.90;;;;;;5004338;28;20054;-72
2023/03/15 02:56:32;;;;;;;4.10;1.23;;;3.60;99.90;;;;;;5005120;28;20038;-72
2023/03/15 02:58:58;;;;;;;5.32;1.23;;;3.50;99.90;;;;;;5009075;28;20049;-72
2023/03/15 03:01:23;;;;;;;9.88;1.13;;;3.50;99.90;;;;;;5005976;28;20040;-73
2023/03/15 03:03:49;;;;;;;8.60;1.40;;;3.50;99.90;;;;;;5013832;28;20029;-72
2023/03/15 03:06:16;;;;;;;5.45;1.02;;;3.50;99.90;;;;;;4999819;28;20030;-72
2023/03/15 03:08:45;;;;;;;6.05;1.30;;;3.50;99.90;;;;;;5000520;28;20023;-72
2023/03/15 03:11:12;;;;;;;7.03;1.10;;;3.50;99.90;;;;;;5013617;28;20022;-72
2023/03/15 03:13:37;;;;;;;6.43;1.40;;;3.50;99.90;;;;;;5006057;28;20496;-72
2023/03/15 03:16:03;;;;;;;3.80;1.20;;;3.50;99.90;;;;;;5008148;28;20038;-72
2023/03/15 03:18:34;;;;;;;4.15;0.98;;;3.50;99.90;;;;;;4984665;28;20029;-72
2023/03/15 03:21:01;;;;;;;2.10;0.90;;;3.50;99.90;;;;;;5004357;28;20152;-72
2023/03/15 03:23:27;;;;;;;4.38;1.02;;;3.50;99.90;;;;;;5003745;28;20437;-72
2023/03/15 03:25:54;;;;;;;2.25;0.70;;;3.40;99.90;;;;;;4993928;28;20037;-73
2023/03/15 03:28:24;;;;;;;6.90;1.20;;;3.40;99.90;;;;;;5003004;28;20386;-72
2023/03/15 03:30:51;;;;;;;8.93;0.98;;;3.30;99.90;;;;;;5006446;28;20032;-72
2023/03/15 03:33:16;;;;;;;2.67;0.75;;;3.20;99.90;;;;;;4991822;28;20338;-72
2023/03/15 03:35:42;;;;;;;2.80;0.90;;;3.10;99.90;;;;;;5001204;28;20109;-72
2023/03/15 03:38:09;;;;;;;2.17;0.90;;;3.10;99.90;;;;;;4995507;28;20370;-72
2023/03/15 03:40:35;;;;;;;6.55;1.25;;;3.10;99.90;;;;;;4983193;28;20092;-72
2023/03/15 03:43:01;;;;;;;3.55;1.02;;;3.20;99.90;;;;;;5009440;28;20467;-71
2023/03/15 03:45:26;;;;;;;4.88;1.05;;;3.20;99.90;;;;;;5004257;28;20089;-72
2023/03/15 03:47:52;;;;;;;6.20;1.10;;;3.30;99.90;;;;;;5001023;28;20046;-72
2023/03/15 03:50:18;;;;;;;3.17;0.90;;;3.30;99.90;;;;;;5005710;28;20523;-72
2023/03/15 03:52:43;;;;;;;4.55;1.15;;;3.40;99.90;;;;;;5000758;28;20408;-72
2023/03/15 03:55:13;;;;;;;5.30;0.90;;;3.40;99.90;;;;;;5006372;28;20486;-72
2023/03/15 03:57:39;;;;;;;3.08;0.88;;;3.40;99.90;;;;;;4995787;28;20548;-72
2023/03/15 04:00:07;;;;;;;3.15;1.00;;;3.40;99.90;;;;;;5000539;28;20029;-72
2023/03/15 04:02:33;;;;;;;2.03;1.00;;;3.50;99.90;;;;;;4993559;28;20201;-72
2023/03/15 04:04:58;;;;;;;4.32;1.00;;;3.40;99.90;;;;;;5007811;28;20026;-72
2023/03/15 04:07:24;;;;;;;3.03;0.82;;;3.50;99.90;;;;;;5007860;28;20022;-72
2023/03/15 04:09:50;;;;;;;3.35;0.90;;;3.50;99.90;;;;;;5003039;28;20127;-72
2023/03/15 04:12:15;;;;;;;4.20;0.98;;;3.50;99.90;;;;;;5011212;28;20022;-72
2023/03/15 04:14:41;;;;;;;2.50;0.90;;;3.50;99.90;;;;;;4995569;28;20014;-72
2023/03/15 04:17:09;;;;;;;2.45;0.90;;;3.50;99.90;;;;;;5010144;28;20030;-72
2023/03/15 04:19:35;;;;;;;3.28;1.05;;;3.50;99.90;;;;;;5000593;28;20029;-72
2023/03/15 04:22:05;;;;;;;1.77;1.00;;;3.50;99.90;;;;;;5012668;28;20528;-73
2023/03/15 04:24:33;;;;;;;2.85;0.82;;;3.50;99.90;;;;;;4999501;28;20029;-73
2023/03/15 04:26:59;;;;;;;4.68;1.02;;;3.50;99.90;;;;;;5002328;28;20048;-72
2023/03/15 04:29:25;;;;;;;3.42;0.98;;;3.50;99.90;;;;;;4999432;28;20477;-73
2023/03/15 04:31:50;;;;;;;2.95;1.20;;;3.50;99.90;;;;;;4995765;28;20501;-73
2023/03/15 04:34:16;;;;;;;6.70;1.23;;;3.50;99.90;;;;;;5012348;28;20382;-73
2023/03/15 04:36:41;;;;;;;1.90;1.00;;;3.50;99.90;;;;;;5001300;28;20030;-74
2023/03/15 04:39:08;;;;;;;6.85;1.30;;;3.50;99.90;;;;;;5005895;28;20053;-74
2023/03/15 04:41:34;;;;;;;46.38;22.52;;;3.40;99.90;;;;;;5008458;28;20031;-74
2023/03/15 04:44:04;;;;;;;7.57;1.90;;;3.40;99.90;;;;;;4985726;28;20044;-73
2023/03/15 04:46:31;;;;;;;4.60;1.55;;;3.40;99.90;;;;;;5008461;28;20030;-74
2023/03/15 04:48:57;;;;;;;5.07;2.00;;;3.40;99.90;;;;;;5002010;28;20439;-74
2023/03/15 04:51:23;;;;;;;7.28;1.95;;;3.30;99.90;;;;;;4998511;28;20029;-74
2023/03/15 04:53:49;;;;;;;7.47;2.00;;;3.40;99.90;;;;;;4999898;28;20101;-74
2023/03/15 04:56:15;;;;;;;5.85;1.70;;;3.40;99.90;;;;;;5000041;28;20168;-74
2023/03/15 04:58:40;;;;;;;6.40;2.10;;;3.40;99.90;;;;;;4997992;28;20521;-74
2023/03/15 05:01:06;;;;;;;5.38;1.60;;;3.40;99.90;;;;;;4997263;28;20124;-74
2023/03/15 05:03:31;;;;;;;7.32;1.75;;;3.40;99.90;;;;;;5017171;28;20168;-74
2023/03/15 05:05:57;;;;;;;5.68;1.60;;;3.40;99.90;;;;;;5015222;28;20335;-74
2023/03/15 05:08:23;;;;;;;4.22;1.90;;;3.40;99.90;;;;;;4996919;28;20029;-74
2023/03/15 05:10:48;;;;;;;6.18;1.73;;;3.40;99.90;;;;;;5000741;28;20474;-74
2023/03/15 05:13:14;;;;;;;9.27;1.73;;;3.40;99.90;;;;;;5016038;28;20030;-73
2023/03/15 05:15:40;;;;;;;4.88;1.90;;;3.40;99.90;;;;;;5015879;28;20014;-74
2023/03/15 05:18:05;;;;;;;9.25;2.17;;;3.30;99.90;;;;;;5008052;28;20027;-74
2023/03/15 05:20:31;;;;;;;5.47;2.00;;;3.30;99.90;;;;;;4999339;28;20100;-74
2023/03/15 05:22:57;;;;;;;6.65;2.00;;;3.30;99.90;;;;;;5001797;28;20041;-73
2023/03/15 05:25:23;;;;;;;6.00;2.00;;;3.20;99.90;;;;;;5006432;28;20573;-74
2023/03/15 05:27:49;;;;;;;5.57;2.03;;;3.20;99.90;;;;;;4994007;28;20048;-74
2023/03/15 05:30:15;;;;;;;7.55;2.10;;;3.10;99.90;;;;;;5006250;28;20022;-73
2023/03/15 05:32:43;;;;;;;6.00;2.40;;;3.10;99.90;;;;;;5012116;28;20049;-74
2023/03/15 05:35:10;;;;;;;5.88;2.08;;;3.10;99.90;;;;;;5012754;28;20061;-73
2023/03/15 05:37:36;;;;;;;7.45;2.08;;;3.00;99.90;;;;;;5015550;28;20469;-73
2023/03/15 05:40:06;;;;;;;7.40;2.10;;;3.00;99.90;;;;;;5016345;28;20029;-73
2023/03/15 05:42:32;;;;;;;4.32;1.85;;;3.00;99.90;;;;;;5012542;28;20034;-73
2023/03/15 05:44:58;;;;;;;8.45;1.98;;;3.00;99.90;;;;;;5014085;28;20109;-73
2023/03/15 05:47:24;;;;;;;8.90;1.90;;;3.00;99.90;;;;;;5015670;28;20068;-74
2023/03/15 05:49:49;;;;;;;5.90;1.70;;;2.90;99.90;;;;;;5012626;28;20027;-73
2023/03/15 05:52:15;;;;;;;6.03;1.80;;;2.90;99.90;;;;;;4996811;28;20033;-73
2023/03/15 05:54:41;;;;;;;6.60;1.85;;;2.90;99.90;;;;;;5004641;28;20018;-73
2023/03/15 05:57:07;;;;;;;6.53;1.88;;;2.80;99.90;;;;;;5006728;28;20469;-73
2023/03/15 05:59:33;;;;;;;6.43;2.00;;;2.80;99.90;;;;;;5000552;28;20014;-73
2023/03/15 06:01:58;;;;;;;6.07;1.75;;;2.80;99.90;;;;;;4997710;28;20038;-73
2023/03/15 06:04:24;;;;;;;5.32;1.95;;;2.80;99.90;;;;;;4998793;28;20451;-73
2023/03/15 06:06:51;;;;;;;4.82;1.90;;;2.80;99.90;;;;;;5004433;28;20024;-73
2023/03/15 06:09:17;;;;;;;4.15;1.92;;;2.70;99.90;;;;;;4996811;28;20030;-73
2023/03/15 06:11:42;;;;;;;6.40;1.80;;;2.70;99.90;;;;;;4997003;28;20041;-73
2023/03/15 06:14:08;;;;;;;6.47;2.40;;;2.70;99.90;;;;;;5005796;28;20097;-73
2023/03/15 06:16:34;;;;;;;5.20;2.03;;;2.70;99.90;;;;;;5003439;28;20477;-73
2023/03/15 06:19:00;;;;;;;6.57;1.92;;;2.70;99.90;;;;;;5009458;28;20033;-73
2023/03/15 06:21:25;;;;;;;5.78;2.33;;;2.70;99.90;;;;;;5003215;28;20149;-73
2023/03/15 06:23:51;;;;;;;8.60;2.20;;;2.70;99.90;;;;;;5006832;28;20464;-73
2023/03/15 06:26:18;;;;;;;7.03;2.28;;;2.60;99.90;;;;;;5001113;28;20468;-72
2023/03/15 06:28:44;;;;;;;8.45;2.58;;;2.60;99.90;;;;;;5014225;28;20038;-73
2023/03/15 06:31:12;;;;;;;8.38;2.08;;;2.60;99.90;;;;;;5009143;28;20113;-73
2023/03/15 06:33:37;;;;;;;6.72;2.25;;;2.70;99.90;;;;;;5004262;28;20041;-73
2023/03/15 06:36:03;;;;;;;5.97;2.00;;;2.70;99.90;;;;;;5000348;28;20370;-73
2023/03/15 06:38:30;;;;;;;7.03;2.22;;;2.60;99.90;;;;;;4999803;28;20041;-73
2023/03/15 06:41:00;;;;;;;5.82;2.13;;;2.60;99.90;;;;;;5007372;28;20022;-73
2023/03/15 06:43:26;;;;;;;10.85;2.30;;;2.60;99.90;;;;;;4999101;28;20023;-73
2023/03/15 06:45:57;;;;;;;4.22;2.20;;;2.60;99.90;;;;;;5008753;28;20026;-73
2023/03/15 06:48:23;;;;;;;9.65;2.90;;;2.60;99.90;;;;;;4995820;28;20062;-73
2023/03/15 06:50:48;;;;;;;12.45;2.88;;;2.70;99.90;;;;;;5003252;28;20030;-72
2023/03/15 06:53:14;;;;;;;6.70;2.50;;;2.70;99.90;;;;;;4992579;28;20608;-73
2023/03/15 06:55:40;;;;;;;7.75;2.70;;;2.60;99.90;;;;;;5012890;28;20095;-73
2023/03/15 06:58:06;;;;;;;8.18;2.90;;;2.70;99.90;;;;;;5013802;28;20026;-72
2023/03/15 07:00:31;;;;;;;7.28;2.65;;;2.70;99.90;;;;;;5002420;28;20676;-73
2023/03/15 07:02:57;;;;;;;7.30;2.83;;;2.70;99.90;;;;;;5008250;28;20160;-73
2023/03/15 07:05:22;;;;;;;9.98;3.00;;;2.70;99.90;;;;;;5004331;28;20041;-73
2023/03/15 07:07:48;;;;;;;11.52;3.00;;;2.70;99.90;;;;;;5005114;28;20466;-73
2023/03/15 07:10:13;;;;;;;9.23;3.58;;;2.70;99.90;;;;;;5006825;28;20033;-73
2023/03/15 07:12:39;;;;;;;10.55;2.83;;;2.70;99.90;;;;;;5007713;28;20023;-74
2023/03/15 07:15:05;;;;;;;14.65;3.25;;;2.70;99.90;;;;;;5003248;28;20021;-73
2023/03/15 07:17:31;;;;;;;13.95;2.75;;;2.80;99.90;;;;;;4994969;28;20037;-73
2023/03/15 07:19:56;;;;;;;14.25;2.90;;;2.80;99.90;;;;;;5006804;28;20030;-73
2023/03/15 07:22:23;;;;;;;11.73;2.53;;;2.90;99.90;;;;;;5002783;28;20088;-73
2023/03/15 07:24:48;;;;;;;12.52;2.47;;;2.90;99.90;;;;;;5007949;28;20045;-73
2023/03/15 07:27:14;;;;;;;17.20;3.20;;;3.00;99.90;;;;;;5009272;28;20025;-73
2023/03/15 07:29:40;;;;;;;11.93;2.28;;;3.00;99.90;;;;;;4999348;28;20025;-73
2023/03/15 07:32:06;;;;;;;13.63;2.45;;;3.00;99.90;;;;;;5006798;28;20029;-73
2023/03/15 07:34:31;;;;;;;19.45;2.47;;;3.10;99.90;;;;;;5011409;28;20022;-73
2023/03/15 07:36:57;;;;;;;11.45;2.60;;;3.10;99.90;;;;;;4997988;28;20097;-73
2023/03/15 07:39:25;;;;;;;7.90;2.08;;;3.10;99.90;;;;;;5003660;28;20101;-73
2023/03/15 07:41:51;;;;;;;10.02;2.00;;;3.10;99.90;;;;;;5001163;28;20113;-73
2023/03/15 07:44:17;;;;;;;15.57;2.85;;;3.10;99.90;;;;;;5011470;28;20046;-74
2023/03/15 07:46:43;;;;;;;13.77;2.47;;;3.10;99.90;;;;;;5008302;28;20496;-73
2023/03/15 07:49:09;;;;;;;13.40;2.72;;;3.10;99.90;;;;;;4997365;28;20149;-72
2023/03/15 07:51:34;;;;;;;10.88;2.45;;;3.20;99.90;;;;;;4996596;28;20012;-73
2023/03/15 07:54:00;;;;;;;12.48;2.50;;;3.20;99.90;;;;;;5002000;28;20101;-73
2023/03/15 07:56:25;;;;;;;11.02;2.15;;;3.20;99.90;;;;;;4999293;28;20429;-73
2023/03/15 07:58:51;;;;;;;16.35;2.72;;;3.30;99.90;;;;;;4997183;28;20046;-73
2023/03/15 08:01:17;;;;;;;12.73;2.30;;;3.30;99.90;;;;;;4992468;28;20030;-73
2023/03/15 08:03:42;;;;;;;16.20;2.47;;;3.40;99.90;;;;;;4995412;28;20113;-73
2023/03/15 08:06:08;;;;;;;16.73;2.55;;;3.40;99.90;;;;;;5002180;28;20017;-73
2023/03/15 08:08:33;;;;;;;17.92;2.38;;;3.50;99.90;;;;;;4982547;28;20034;-73
2023/03/15 08:10:59;;;;;;;9.98;2.63;;;3.50;99.90;;;;;;5011293;28;20025;-74
2023/03/15 08:13:25;;;;;;;9.13;1.88;;;3.50;99.90;;;;;;5009154;28;20022;-74
2023/03/15 08:15:50;;;;;;;6.22;1.60;;;3.60;99.90;;;;;;5003122;28;20019;-73
2023/03/15 08:18:16;;;;;;;10.38;2.05;;;3.70;99.90;;;;;;5006143;28;20030;-73
2023/03/15 08:20:42;;;;;;;9.50;2.28;;;3.70;99.90;;;;;;5003727;28;20445;-73
2023/03/15 08:23:08;;;;;;;13.52;2.63;;;3.80;99.90;;;;;;5005762;28;20053;-73
2023/03/15 08:25:39;;;;;;;13.15;2.25;;;3.90;99.90;;;;;;4993968;28;20038;-73
2023/03/15 08:28:05;;;;;;;17.27;2.63;;;4.00;99.90;;;;;;4998208;28;20063;-73
2023/03/15 08:30:30;;;;;;;8.88;2.17;;;4.10;99.90;;;;;;4997491;28;20023;-73
2023/03/15 08:32:56;;;;;;;12.35;2.05;;;4.10;99.90;;;;;;5006481;28;20039;-73
2023/03/15 08:35:21;;;;;;;8.60;1.60;;;4.20;99.90;;;;;;4996132;28;20029;-73
2023/03/15 08:37:47;;;;;;;10.48;2.08;;;4.30;99.90;;;;;;5006595;28;20021;-73
2023/03/15 08:40:17;;;;;;;9.95;2.15;;;4.40;99.90;;;;;;5000775;28;20057;-73
2023/03/15 08:42:43;;;;;;;10.70;1.92;;;4.50;99.90;;;;;;5001495;28;20146;-73
2023/03/15 08:45:10;;;;;;;8.15;1.85;;;4.60;99.90;;;;;;5006196;28;20532;-73
2023/03/15 08:47:36;;;;;;;12.13;2.03;;;4.80;99.90;;;;;;5003090;28;20026;-72
2023/03/15 08:50:04;;;;;;;10.23;1.95;;;5.00;99.90;;;;;;5005854;28;20113;-73
2023/03/15 08:52:30;;;;;;;9.90;1.92;;;5.10;99.90;;;;;;5002527;28;20027;-72
2023/03/15 08:54:56;;;;;;;10.65;2.20;;;5.30;99.90;;;;;;5006411;28;20030;-73
2023/03/15 08:57:24;;;;;;;9.23;1.90;;;5.40;99.90;;;;;;4999883;28;20501;-73
2023/03/15 08:59:50;;;;;;;11.18;1.55;;;5.50;99.90;;;;;;5006130;28;20370;-73
2023/03/15 09:02:16;;;;;;;8.80;2.28;;;5.60;99.90;;;;;;4982773;28;20030;-72
2023/03/15 09:04:42;;;;;;;5.50;1.50;;;5.70;99.90;;;;;;4996510;28;20022;-72
2023/03/15 09:07:07;;;;;;;10.13;1.40;;;5.90;99.90;;;;;;5002978;28;20093;-72
2023/03/15 09:09:33;;;;;;;9.35;1.45;;;6.00;99.90;;;;;;5000119;28;20026;-73
2023/03/15 09:11:59;;;;;;;11.93;2.08;;;6.10;99.90;;;;;;5012456;28;20384;-73
2023/03/15 09:14:24;;;;;;;9.38;1.83;;;6.30;99.90;;;;;;4998437;28;20014;-73
2023/03/15 09:16:51;;;;;;;10.75;1.70;;;6.50;99.90;;;;;;5000969;28;20492;-74
2023/03/15 09:19:16;;;;;;;7.30;1.40;;;6.70;99.90;;;;;;4988399;28;20062;-73
2023/03/15 09:21:43;;;;;;;10.45;1.75;;;6.80;99.90;;;;;;4992184;28;20053;-73
2023/03/15 09:24:09;;;;;;;7.47;1.30;;;6.90;99.90;;;;;;5006203;28;20060;-73
2023/03/15 09:26:35;;;;;;;11.55;1.60;;;7.00;99.90;;;;;;5000320;28;20477;-73
2023/03/15 09:29:00;;;;;;;10.73;1.92;;;7.20;99.90;;;;;;5001621;28;20034;-73
2023/03/15 09:31:26;;;;;;;6.30;1.30;;;7.30;99.90;;;;;;4999624;28;20540;-73
2023/03/15 09:33:55;;;;;;;7.95;1.13;;;7.40;99.90;;;;;;5003708;28;20015;-73
2023/03/15 09:36:21;;;;;;;8.07;1.42;;;7.50;99.90;;;;;;4996900;28;20420;-73
2023/03/15 09:38:46;;;;;;;5.53;1.40;;;7.70;99.90;;;;;;4994308;28;20021;-73
2023/03/15 09:41:27;;;;;;;16.02;1.45;;;7.80;99.90;;;;;;5005899;28;20022;-73
2023/03/15 09:44:26;;;;;;;7.35;1.10;;;8.00;99.90;;;;;;5002007;28;20034;-73
2023/03/15 09:46:57;;;;;;;6.72;1.17;;;8.10;99.90;;;;;;4995948;28;20057;-73
2023/03/15 09:49:44;;;;;;;7.57;1.48;;;8.10;99.90;;;;;;4995813;28;20125;-73
2023/03/15 09:52:37;;;;;;;5.47;1.10;;;8.30;99.90;;;;;;4998086;28;20034;-73
2023/03/15 09:55:22;;;;;;;10.65;1.60;;;8.50;99.90;;;;;;5013136;28;20026;-73
2023/03/15 09:57:55;;;;;;;4.47;1.30;;;8.60;99.90;;;;;;5015585;28;20069;-73
2023/03/15 10:00:38;;;;;;;5.47;1.17;;;8.70;99.90;;;;;;4998008;28;20022;-73
2023/03/15 10:03:08;;;;;;;8.63;1.23;;;8.70;99.90;;;;;;5000297;28;20507;-73
2023/03/15 10:05:40;;;;;;;7.75;1.25;;;8.70;99.90;;;;;;5015641;28;20098;-73
2023/03/15 10:08:16;;;;;;;6.00;1.10;;;8.80;99.90;;;;;;5005307;28;20038;-73
2023/03/15 10:11:11;;;;;;;5.90;1.08;;;8.80;99.90;;;;;;5004972;28;20044;-72
2023/03/15 10:13:52;;;;;;;8.23;1.52;;;8.90;99.90;;;;;;5012356;28;20030;-73
2023/03/15 10:16:36;;;;;;;5.25;1.20;;;8.90;99.90;;;;;;5002477;28;20025;-73
2023/03/15 10:19:22;;;;;;;5.20;1.58;;;9.00;99.90;;;;;;5005464;28;20033;-74
2023/03/15 10:22:12;;;;;;;9.23;1.77;;;9.10;99.90;;;;;;5005244;28;20148;-74
2023/03/15 10:25:05;;;;;;;9.75;1.60;;;9.10;99.90;;;;;;5000369;28;20088;-73
2023/03/15 10:27:40;;;;;;;10.82;1.95;;;9.10;99.90;;;;;;5012970;28;20026;-73
2023/03/15 10:30:18;;;;;;;9.00;2.17;;;9.10;99.90;;;;;;5003152;28;20026;-73
2023/03/15 10:33:10;;;;;;;9.10;1.92;;;9.30;99.90;;;;;;5009884;28;20021;-73
2023/03/15 10:35:36;;;;;;;7.80;2.00;;;9.40;99.90;;;;;;4984625;28;20045;-73
2023/03/15 10:38:02;;;;;;;6.55;1.92;;;9.50;99.90;;;;;;5011456;28;20034;-73
2023/03/15 10:40:38;;;;;;;8.00;1.60;;;9.50;99.90;;;;;;5013833;28;20018;-73
2023/03/15 10:43:22;;;;;;;10.80;2.00;;;9.60;99.90;;;;;;4996496;28;20081;-73
2023/03/15 10:46:01;;;;;;;6.70;1.83;;;9.60;99.90;;;;;;5008120;28;20053;-73
2023/03/15 10:48:28;;;;;;;8.00;1.83;;;9.70;99.90;;;;;;4992986;28;20042;-73
2023/03/15 10:50:55;;;;;;;9.52;1.80;;;9.70;99.90;;;;;;4979199;28;20023;-73
2023/03/15 10:53:21;;;;;;;9.68;1.80;;;9.80;99.90;;;;;;5001611;28;20032;-73
2023/03/15 10:55:47;;;;;;;8.50;2.05;;;9.80;99.90;;;;;;5013795;28;20014;-73
2023/03/15 10:58:22;;;;;;;8.52;1.58;;;9.90;99.90;;;;;;5010871;28;20389;-73
2023/03/15 11:00:51;;;;;;;9.80;2.03;;;10.00;99.90;;;;;;4999808;28;20674;-73
2023/03/15 11:03:22;;;;;;;8.80;1.90;;;10.00;99.90;;;;;;5014080;28;20050;-72
2023/03/15 11:05:52;;;;;;;10.07;2.15;;;10.00;99.90;;;;;;4996680;28;20034;-73
2023/03/15 11:08:24;;;;;;;10.18;1.95;;;10.00;99.90;;;;;;4994426;28;20080;-73
2023/03/15 11:10:58;;;;;;;6.25;1.67;;;10.10;99.90;;;;;;5007922;28;20604;-73
2023/03/15 11:13:32;;;;;;;12.10;2.35;;;10.10;99.90;;;;;;4994527;28;20486;-73
2023/03/15 11:16:05;;;;;;;8.18;1.55;;;10.10;99.90;;;;;;4991333;28;20489;-73
2023/03/15 11:18:43;;;;;;;4.80;1.33;;;10.10;99.90;;;;;;4993479;28;20533;-73
2023/03/15 11:21:13;;;;;;;4.07;1.50;;;10.10;99.90;;;;;;4994080;28;20081;-73
2023/03/15 11:23:42;;;;;;;7.05;1.40;;;10.20;99.90;;;;;;4994057;28;20032;-73
2023/03/15 11:26:16;;;;;;;7.53;1.80;;;10.30;99.90;;;;;;4996908;28;20018;-73
2023/03/15 11:28:48;;;;;;;9.07;1.48;;;10.50;99.90;;;;;;5012472;28;20037;-73
2023/03/15 11:31:14;;;;;;;5.70;1.52;;;10.50;99.90;;;;;;4991616;28;20041;-73
2023/03/15 11:34:17;;;;;;;6.07;1.38;;;10.60;99.90;;;;;;5006618;28;20410;-73
2023/03/15 11:36:45;;;;;;;5.78;1.15;;;10.50;99.90;;;;;;4959974;28;20038;-73
2023/03/15 11:39:14;;;;;;;3.70;1.05;;;10.50;99.90;;;;;;5013148;28;20022;-73
2023/03/15 11:41:52;;;;;;;5.43;1.10;;;10.50;99.90;;;;;;5012347;28;20502;-75
2023/03/15 11:44:48;;;;;;;6.25;1.30;;;10.60;98.70;;;;;;5001902;28;20523;-73
2023/03/15 11:47:47;;;;;;;5.30;0.90;;;10.60;98.10;;;;;;4983608;28;20408;-74
2023/03/15 11:50:14;;;;;;;5.85;1.27;;;10.60;98.90;;;;;;5013382;28;20527;-73
2023/03/15 11:52:41;;;;;;;5.85;1.10;;;10.50;98.70;;;;;;5013473;28;20040;-73
2023/03/15 11:55:25;;;;;;;5.18;1.13;;;10.60;99.90;;;;;;5013311;28;20026;-73
2023/03/15 11:57:52;;;;;;;4.65;1.30;;;10.70;99.90;;;;;;5013583;28;20036;-73
2023/03/15 12:00:30;;;;;;;4.43;1.30;;;10.70;98.80;;;;;;4992113;28;20500;-73
2023/03/15 12:03:00;;;;;;;6.28;1.27;;;10.70;98.50;;;;;;5011071;28;20113;-73
2023/03/15 12:05:44;;;;;;;6.30;1.08;;;10.70;99.00;;;;;;5003399;28;20030;-73
2023/03/15 12:08:49;;;;;;;3.13;1.05;;;10.80;96.70;;;;;;4994009;28;20056;-73
2023/03/15 12:11:21;;;;;;;7.90;1.33;;;10.90;96.80;;;;;;5000337;28;20030;-73
2023/03/15 12:13:56;;;;;;;5.35;1.30;;;10.80;97.50;;;;;;5003684;28;20085;-74
2023/03/15 12:16:26;;;;;;;7.95;1.50;;;10.70;97.90;;;;;;5011622;28;20036;-73
2023/03/15 12:18:56;;;;;;;7.60;1.45;;;10.70;98.30;;;;;;5012146;28;20512;-73
2023/03/15 12:21:33;;;;;;;3.80;1.20;;;10.70;98.00;;;;;;5000169;28;20418;-73
2023/03/15 12:24:04;;;;;;;3.67;1.15;;;10.80;96.10;;;;;;4988309;28;20060;-74
2023/03/15 12:26:38;;;;;;;9.15;1.10;;;10.80;96.40;;;;;;5006099;28;20026;-73
2023/03/15 12:29:11;;;;;;;7.30;1.33;;;10.80;96.70;;;;;;5004517;28;20030;-74
2023/03/15 12:32:07;;;;;;;3.95;1.08;;;10.80;97.80;;;;;;4998829;28;20089;-73
2023/03/15 12:34:41;;;;;;;5.03;1.15;;;10.80;95.70;;;;;;4974272;28;20121;-73
2023/03/15 12:37:13;;;;;;;5.25;1.00;;;10.60;96.50;;;;;;5012410;28;20037;-73
2023/03/15 12:39:40;;;;;;;7.88;1.23;;;10.60;97.50;;;;;;5011876;28;20029;-73
2023/03/15 12:42:11;;;;;;;6.97;1.30;;;10.70;96.70;;;;;;4993985;28;20113;-73
2023/03/15 12:44:40;;;;;;;6.50;1.10;;;10.80;95.90;;;;;;5002707;28;20109;-73
2023/03/15 12:47:08;;;;;;;3.47;0.95;;;10.80;95.40;;;;;;4997918;28;20314;-73
2023/03/15 12:49:41;;;;;;;7.43;1.20;;;10.80;94.90;;;;;;5002322;28;20042;-73
2023/03/15 12:52:09;;;;;;;3.45;1.08;;;10.90;93.80;;;;;;5013091;28;20033;-73
2023/03/15 12:54:49;;;;;;;3.97;1.08;;;10.90;94.20;;;;;;5007570;28;20031;-74
2023/03/15 12:57:42;;;;;;;4.47;1.02;;;10.90;94.20;;;;;;4993021;28;20077;-74
2023/03/15 13:00:17;;;;;;;3.83;1.27;;;10.90;93.40;;;;;;4984267;28;20461;-74
2023/03/15 13:02:50;;;;;;;4.18;1.00;;;10.90;94.00;;;;;;4995819;28;20042;-74